createdAt,value
2022-11-18T00:00:03.611Z,9.89
2022-11-18T00:02:32.848Z,9.89
2022-11-18T00:05:00.795Z,9.89
2022-11-18T00:07:28.680Z,9.89
2022-11-18T00:09:57.892Z,9.91
2022-11-18T00:12:43.285Z,9.89
2022-11-18T00:15:11.764Z,9.89
2022-11-18T00:17:39.527Z,9.88
2022-11-18T00:20:08.377Z,9.89
2022-11-18T00:22:36.183Z,9.89
2022-11-18T00:25:05.929Z,9.91
2022-11-18T00:27:33.760Z,9.90
2022-11-18T00:30:01.591Z,9.91
2022-11-18T00:32:29.343Z,9.91
2022-11-18T00:34:57.198Z,9.91
2022-11-18T00:37:24.957Z,9.92
2022-11-18T00:39:52.903Z,9.94
2022-11-18T00:42:44.722Z,9.95
2022-11-18T00:45:12.627Z,9.92
2022-11-18T00:47:40.547Z,9.93
2022-11-18T00:50:09.033Z,9.95
2022-11-18T00:52:37.008Z,9.96
2022-11-18T00:55:05.305Z,9.95
2022-11-18T00:57:34.527Z,9.97
2022-11-18T01:00:02.647Z,9.96
2022-11-18T01:02:30.528Z,9.96
2022-11-18T01:04:58.512Z,9.96
2022-11-18T01:07:26.382Z,9.96
2022-11-18T01:09:54.232Z,9.94
2022-11-18T01:12:52.945Z,9.95
2022-11-18T01:15:23.454Z,9.95
2022-11-18T01:17:51.277Z,9.94
2022-11-18T01:20:19.226Z,9.94
2022-11-18T01:22:47.061Z,9.94
2022-11-18T01:25:14.945Z,9.95
2022-11-18T01:27:42.934Z,9.95
2022-11-18T01:30:11.524Z,9.96
2022-11-18T01:32:40.911Z,9.97
2022-11-18T01:35:09.691Z,9.96
2022-11-18T01:37:37.558Z,9.96
2022-11-18T01:40:06.360Z,9.96
2022-11-18T01:42:34.296Z,9.95
2022-11-18T01:45:09.723Z,9.96
2022-11-18T01:47:44.812Z,9.96
2022-11-18T01:50:15.989Z,9.96
2022-11-18T01:52:50.231Z,9.94
2022-11-18T01:55:24.872Z,9.95
2022-11-18T01:57:58.081Z,9.93
2022-11-18T02:00:26.201Z,9.91
2022-11-18T02:02:56.145Z,9.92
2022-11-18T02:05:26.209Z,9.91
2022-11-18T02:07:54.105Z,9.89
2022-11-18T02:10:25.044Z,9.90
2022-11-18T02:12:57.057Z,9.89
2022-11-18T02:15:36.536Z,9.86
2022-11-18T02:18:14.171Z,9.85
2022-11-18T02:20:45.105Z,9.83
2022-11-18T02:23:47.988Z,9.83
2022-11-18T02:26:48.766Z,9.78
2022-11-18T02:29:21.940Z,9.78
2022-11-18T02:31:56.490Z,9.78
2022-11-18T02:34:37.142Z,9.77
2022-11-18T02:37:13.661Z,9.78
2022-11-18T02:39:48.987Z,9.76
2022-11-18T02:42:18.270Z,9.75
2022-11-18T02:44:53.262Z,9.74
2022-11-18T02:47:23.329Z,9.73
2022-11-18T02:49:55.111Z,9.72
2022-11-18T02:52:24.306Z,9.70
2022-11-18T02:54:53.844Z,9.68
2022-11-18T02:57:23.128Z,9.67
2022-11-18T02:59:52.279Z,9.67
2022-11-18T03:02:21.506Z,9.66
2022-11-18T03:04:52.756Z,9.66
2022-11-18T03:07:27.202Z,9.67
2022-11-18T03:09:56.639Z,9.65
2022-11-18T03:12:31.584Z,9.66
2022-11-18T03:15:08.337Z,9.67
2022-11-18T03:17:48.668Z,9.68
2022-11-18T03:20:21.338Z,9.67
2022-11-18T03:22:55.736Z,9.67
2022-11-18T03:25:28.747Z,9.69
2022-11-18T03:28:07.353Z,9.72
2022-11-18T03:30:40.681Z,9.70
2022-11-18T03:33:13.767Z,9.72
2022-11-18T03:35:45.509Z,9.70
2022-11-18T03:38:18.504Z,9.72
2022-11-18T03:40:49.688Z,9.45
2022-11-18T03:43:22.339Z,9.66
2022-11-18T03:45:54.731Z,9.68
2022-11-18T03:48:27.887Z,9.68
2022-11-18T03:51:00.663Z,9.69
2022-11-18T03:53:33.846Z,9.67
2022-11-18T03:56:17.135Z,9.68
2022-11-18T03:58:52.942Z,9.67
2022-11-18T04:01:29.862Z,9.66
2022-11-18T04:03:57.884Z,9.64
2022-11-18T04:06:32.098Z,9.66
2022-11-18T04:09:04.851Z,9.65
2022-11-18T04:11:56.141Z,9.64
2022-11-18T04:14:24.195Z,9.62
2022-11-18T04:16:54.045Z,9.64
2022-11-18T04:19:22.249Z,9.64
2022-11-18T04:21:50.716Z,9.65
2022-11-18T04:24:18.612Z,9.66
2022-11-18T04:26:46.455Z,9.66
2022-11-18T04:29:14.341Z,9.67
2022-11-18T04:31:42.671Z,9.68
2022-11-18T04:34:11.924Z,9.71
2022-11-18T04:36:39.848Z,9.70
2022-11-18T04:39:07.885Z,9.70
2022-11-18T04:41:53.087Z,9.70
2022-11-18T04:44:21.063Z,9.71
2022-11-18T04:46:48.906Z,9.72
2022-11-18T04:49:18.626Z,9.74
2022-11-18T04:51:47.321Z,9.73
2022-11-18T04:54:16.284Z,9.74
2022-11-18T04:56:49.061Z,9.75
2022-11-18T04:59:19.803Z,9.75
2022-11-18T05:01:48.095Z,9.75
2022-11-18T05:04:19.494Z,9.77
2022-11-18T05:06:47.965Z,9.78
2022-11-18T05:09:16.413Z,9.77
2022-11-18T05:12:02.663Z,9.79
2022-11-18T05:14:31.536Z,9.79
2022-11-18T05:17:00.834Z,9.81
2022-11-18T05:19:30.793Z,9.81
2022-11-18T05:21:58.993Z,9.80
2022-11-18T05:24:26.792Z,9.81
2022-11-18T05:26:55.846Z,9.81
2022-11-18T05:29:24.189Z,9.82
2022-11-18T05:31:52.504Z,9.81
2022-11-18T05:34:20.763Z,9.81
2022-11-18T05:36:50.186Z,9.83
2022-11-18T05:39:18.333Z,9.83
2022-11-18T05:42:03.728Z,9.82
2022-11-18T05:44:31.574Z,9.82
2022-11-18T05:47:00.196Z,9.83
2022-11-18T05:49:28.111Z,9.84
2022-11-18T05:51:57.271Z,9.85
2022-11-18T05:54:25.289Z,9.85
2022-11-18T05:56:53.229Z,9.84
2022-11-18T05:59:21.500Z,9.85
2022-11-18T06:01:53.878Z,9.88
2022-11-18T06:04:25.257Z,9.85
2022-11-18T06:06:59.989Z,9.87
2022-11-18T06:09:32.397Z,9.88
2022-11-18T06:12:03.470Z,9.85
2022-11-18T06:14:37.066Z,9.88
2022-11-18T06:17:10.658Z,9.89
2022-11-18T06:19:39.496Z,9.87
2022-11-18T06:22:09.834Z,9.88
2022-11-18T06:24:38.536Z,9.87
2022-11-18T06:27:06.638Z,9.86
2022-11-18T06:29:34.593Z,9.85
2022-11-18T06:32:02.506Z,9.85
2022-11-18T06:34:30.322Z,9.84
2022-11-18T06:36:58.132Z,9.83
2022-11-18T06:39:28.075Z,9.84
2022-11-18T06:41:55.858Z,9.81
2022-11-18T06:44:22.658Z,9.82
2022-11-18T06:46:59.478Z,9.81
2022-11-18T06:49:28.340Z,9.81
2022-11-18T06:51:56.388Z,9.81
2022-11-18T06:54:24.339Z,9.81
2022-11-18T06:56:53.504Z,9.83
2022-11-18T06:59:24.460Z,9.80
2022-11-18T07:01:53.310Z,9.81
2022-11-18T07:04:21.596Z,9.82
2022-11-18T07:06:49.844Z,9.80
2022-11-18T07:09:17.834Z,9.80
2022-11-18T07:11:45.881Z,9.81
2022-11-18T07:14:15.630Z,9.82
2022-11-18T07:16:43.558Z,9.81
2022-11-18T07:19:13.360Z,9.82
2022-11-18T07:21:42.754Z,9.83
2022-11-18T07:24:14.136Z,9.84
2022-11-18T07:26:42.556Z,9.83
2022-11-18T07:29:11.598Z,9.83
2022-11-18T07:31:40.924Z,9.84
2022-11-18T07:34:09.412Z,9.85
2022-11-18T07:36:37.461Z,9.85
2022-11-18T07:39:07.655Z,9.86
2022-11-18T07:41:36.241Z,9.86
2022-11-18T07:44:05.273Z,9.85
2022-11-18T07:46:34.772Z,9.85
2022-11-18T07:49:06.800Z,9.87
2022-11-18T07:51:36.020Z,9.84
2022-11-18T07:54:07.760Z,9.85
2022-11-18T07:56:35.618Z,9.85
2022-11-18T07:59:03.391Z,9.85
2022-11-18T08:01:31.531Z,9.85
2022-11-18T08:04:05.248Z,9.84
2022-11-18T08:06:35.671Z,9.86
2022-11-18T08:09:03.927Z,9.86
2022-11-18T08:11:31.926Z,9.88
2022-11-18T08:13:59.714Z,9.89
2022-11-18T08:16:27.541Z,9.89
2022-11-18T08:18:55.881Z,9.89
2022-11-18T08:21:24.438Z,9.89
2022-11-18T08:23:55.651Z,9.92
2022-11-18T08:26:24.905Z,9.90
2022-11-18T08:28:53.118Z,9.91
2022-11-18T08:31:24.313Z,9.94
2022-11-18T08:33:58.547Z,9.95
2022-11-18T08:36:28.195Z,9.94
2022-11-18T08:38:58.128Z,9.96
2022-11-18T08:41:30.553Z,9.98
2022-11-18T08:43:58.797Z,9.94
2022-11-18T08:46:26.638Z,9.97
2022-11-18T08:48:54.586Z,9.97
2022-11-18T08:51:22.496Z,9.99
2022-11-18T08:53:50.550Z,10.01
2022-11-18T08:56:21.079Z,10.03
2022-11-18T08:58:51.518Z,10.03
2022-11-18T09:01:19.487Z,10.02
2022-11-18T09:03:48.537Z,10.08
2022-11-18T09:06:18.594Z,10.12
2022-11-18T09:08:46.660Z,10.14
2022-11-18T09:11:16.577Z,10.20
2022-11-18T09:16:35.918Z,10.32
2022-11-18T09:19:24.779Z,10.40
2022-11-18T09:21:53.151Z,10.48
2022-11-18T09:24:21.212Z,10.56
2022-11-18T09:26:49.879Z,10.65
2022-11-18T09:29:19.945Z,10.73
2022-11-18T09:31:47.828Z,10.78
2022-11-18T09:34:16.091Z,10.86
2022-11-18T09:36:44.171Z,10.92
2022-11-18T09:39:12.101Z,11.00
2022-11-18T09:41:46.109Z,11.08
2022-11-18T09:44:45.796Z,11.10
2022-11-18T09:47:25.876Z,11.19
2022-11-18T09:49:55.791Z,11.25
2022-11-18T09:52:32.715Z,11.32
2022-11-18T09:55:05.550Z,11.37
2022-11-18T09:57:39.358Z,11.42
2022-11-18T10:00:16.411Z,11.46
2022-11-18T10:02:58.732Z,11.48
2022-11-18T10:05:29.013Z,11.46
2022-11-18T10:08:08.378Z,11.50
2022-11-18T10:10:46.097Z,11.50
2022-11-18T10:13:24.056Z,11.50
2022-11-18T10:16:01.659Z,11.50
2022-11-18T10:21:39.288Z,11.49
2022-11-18T10:24:14.725Z,11.49
2022-11-18T10:26:43.451Z,11.50
2022-11-18T10:29:11.517Z,11.52
2022-11-18T10:31:53.710Z,11.55
2022-11-18T10:34:21.698Z,11.52
2022-11-18T10:37:00.875Z,11.59
2022-11-18T10:39:28.868Z,11.58
2022-11-18T10:42:01.337Z,11.63
2022-11-18T10:44:35.466Z,11.64
2022-11-18T10:47:24.572Z,11.65
2022-11-18T10:49:52.614Z,11.64
2022-11-18T10:52:20.826Z,11.66
2022-11-18T10:55:08.413Z,11.65
2022-11-18T10:57:39.110Z,11.65
2022-11-18T11:00:09.166Z,11.65
2022-11-18T11:02:41.865Z,11.66
2022-11-18T11:05:19.916Z,11.65
2022-11-18T11:08:29.076Z,11.63
2022-11-18T11:10:56.791Z,11.62
2022-11-18T11:13:28.051Z,11.63
2022-11-18T11:15:59.133Z,11.64
2022-11-18T11:18:43.370Z,11.67
2022-11-18T11:21:13.499Z,11.67
2022-11-18T11:23:43.425Z,11.68
2022-11-18T11:29:18.123Z,11.76
2022-11-18T11:31:58.677Z,11.82
2022-11-18T11:34:35.479Z,11.85
2022-11-18T11:37:10.722Z,11.88
2022-11-18T11:39:50.837Z,11.92
2022-11-18T11:42:33.370Z,11.95
2022-11-18T11:45:16.397Z,11.96
2022-11-18T11:48:06.074Z,11.72
2022-11-18T11:51:04.263Z,11.99
2022-11-18T11:54:09.647Z,12.01
2022-11-18T11:56:42.750Z,12.02
2022-11-18T11:59:20.214Z,12.07
2022-11-18T12:01:59.826Z,12.08
2022-11-18T12:04:41.147Z,12.08
2022-11-18T12:07:17.993Z,12.10
2022-11-18T12:09:56.461Z,12.11
2022-11-18T12:12:38.227Z,12.12
2022-11-18T12:15:18.608Z,12.13
2022-11-18T12:17:54.617Z,12.13
2022-11-18T12:20:40.645Z,12.11
2022-11-18T12:23:19.233Z,12.11
2022-11-18T12:25:59.508Z,12.09
2022-11-18T12:28:31.109Z,12.08
2022-11-18T12:31:36.523Z,12.04
2022-11-18T12:34:33.384Z,12.00
2022-11-18T12:37:34.440Z,11.98
2022-11-18T12:40:03.638Z,11.95
2022-11-18T12:43:06.910Z,11.92
2022-11-18T12:45:59.383Z,11.84
2022-11-18T12:48:41.336Z,11.84
2022-11-18T12:51:47.769Z,11.82
2022-11-18T12:54:29.065Z,11.79
2022-11-18T12:57:00.905Z,11.77
2022-11-18T12:59:31.437Z,11.72
2022-11-18T13:02:22.279Z,11.70
2022-11-18T13:05:09.645Z,11.65
2022-11-18T13:08:02.041Z,11.63
2022-11-18T13:10:35.598Z,11.57
2022-11-18T13:13:06.677Z,11.57
2022-11-18T13:15:51.964Z,11.53
2022-11-18T13:18:21.715Z,11.50
2022-11-18T13:20:57.646Z,11.50
2022-11-18T13:24:00.744Z,11.47
2022-11-18T13:26:31.232Z,11.41
2022-11-18T13:29:22.304Z,11.40
2022-11-18T13:32:01.339Z,11.41
2022-11-18T13:34:34.525Z,11.39
2022-11-18T13:37:02.812Z,11.36
2022-11-18T13:39:32.727Z,11.36
2022-11-18T13:42:03.062Z,11.35
2022-11-18T13:44:33.491Z,11.33
2022-11-18T13:47:07.722Z,11.33
2022-11-18T13:49:50.567Z,11.31
2022-11-18T13:52:24.074Z,11.30
2022-11-18T13:54:53.745Z,11.28
2022-11-18T13:57:25.018Z,11.27
2022-11-18T13:59:55.593Z,11.27
2022-11-18T14:02:24.229Z,11.25
2022-11-18T14:04:56.043Z,11.24
2022-11-18T14:07:36.049Z,11.23
2022-11-18T14:10:07.202Z,11.21
2022-11-18T14:12:36.927Z,11.19
2022-11-18T14:15:17.590Z,11.19
2022-11-18T14:17:54.180Z,11.17
2022-11-18T14:20:22.908Z,11.14
2022-11-18T14:22:55.741Z,11.14
2022-11-18T14:25:25.654Z,10.86
2022-11-18T14:27:57.091Z,11.07
2022-11-18T14:30:30.064Z,11.08
2022-11-18T14:33:18.907Z,10.81
2022-11-18T14:35:51.773Z,11.02
2022-11-18T14:38:38.400Z,11.02
2022-11-18T14:41:12.772Z,11.01
2022-11-18T14:43:40.684Z,11.00
2022-11-18T14:46:15.587Z,11.02
2022-11-18T14:48:43.889Z,10.97
2022-11-18T14:51:14.569Z,10.98
2022-11-18T14:53:43.167Z,10.97
2022-11-18T14:56:16.086Z,10.97
2022-11-18T14:58:44.058Z,10.94
2022-11-18T15:01:14.147Z,10.95
2022-11-18T15:03:42.231Z,10.92
2022-11-18T15:06:21.404Z,10.95
2022-11-18T15:08:51.075Z,10.92
2022-11-18T15:11:20.176Z,10.91
2022-11-18T15:13:48.114Z,10.90
2022-11-18T15:16:18.544Z,10.91
2022-11-18T15:18:49.277Z,10.90
2022-11-18T15:21:18.286Z,10.89
2022-11-18T15:23:46.302Z,10.86
2022-11-18T15:26:20.889Z,10.86
2022-11-18T15:28:49.418Z,10.81
2022-11-18T15:31:19.208Z,10.81
2022-11-18T15:33:48.548Z,10.78
2022-11-18T15:36:19.459Z,10.77
2022-11-18T15:38:48.091Z,10.74
2022-11-18T15:41:18.755Z,10.73
2022-11-18T15:43:46.765Z,10.70
2022-11-18T15:46:15.261Z,10.68
2022-11-18T15:48:44.692Z,10.67
2022-11-18T15:51:12.787Z,10.63
2022-11-18T15:53:41.189Z,10.62
2022-11-18T15:56:16.783Z,10.63
2022-11-18T15:58:44.637Z,10.57
2022-11-18T16:01:12.801Z,10.55
2022-11-18T16:03:40.635Z,10.54
2022-11-18T16:06:09.976Z,10.53
2022-11-18T16:08:38.029Z,10.50
2022-11-18T16:11:24.012Z,10.48
2022-11-18T16:13:51.910Z,10.43
2022-11-18T16:16:20.524Z,10.43
2022-11-18T16:18:48.563Z,10.40
2022-11-18T16:21:17.809Z,10.38
2022-11-18T16:23:45.779Z,10.35
2022-11-18T16:26:17.364Z,10.33
2022-11-18T16:28:45.415Z,10.30
2022-11-18T16:31:30.845Z,10.28
2022-11-18T16:33:58.738Z,10.24
2022-11-18T16:36:28.522Z,10.24
2022-11-18T16:38:57.013Z,10.20
2022-11-18T16:41:33.841Z,10.20
2022-11-18T16:44:05.313Z,10.19
2022-11-18T16:46:34.505Z,10.17
2022-11-18T16:49:03.192Z,10.14
2022-11-18T16:51:34.125Z,10.15
2022-11-18T16:54:03.702Z,10.13
2022-11-18T16:56:33.478Z,10.11
2022-11-18T16:59:03.582Z,10.11
2022-11-18T17:01:32.698Z,10.09
2022-11-18T17:04:01.456Z,10.08
2022-11-18T17:06:31.029Z,10.08
2022-11-18T17:09:02.137Z,10.07
2022-11-18T17:11:29.988Z,10.07
2022-11-18T17:13:58.443Z,10.05
2022-11-18T17:16:27.577Z,10.08
2022-11-18T17:18:56.976Z,10.06
2022-11-18T17:21:26.094Z,10.05
2022-11-18T17:23:54.669Z,10.04
2022-11-18T17:26:26.053Z,10.04
2022-11-18T17:28:55.626Z,10.01
2022-11-18T17:31:24.619Z,10.01
2022-11-18T17:33:54.767Z,10.00
2022-11-18T17:36:24.179Z,10.01
2022-11-18T17:38:53.932Z,9.99
2022-11-18T17:41:43.435Z,10.00
2022-11-18T17:44:13.609Z,9.97
2022-11-18T17:46:41.834Z,9.96
2022-11-18T17:49:15.008Z,9.97
2022-11-18T17:51:43.261Z,9.94
2022-11-18T17:54:12.728Z,9.95
2022-11-18T17:56:42.332Z,9.96
2022-11-18T17:59:10.263Z,9.93
2022-11-18T18:01:38.240Z,9.93
2022-11-18T18:04:06.416Z,9.93
2022-11-18T18:06:34.386Z,9.91
2022-11-18T18:09:02.192Z,9.90
2022-11-18T18:11:30.677Z,9.90
2022-11-18T18:14:14.335Z,9.89
2022-11-18T18:16:45.767Z,9.85
2022-11-18T18:19:16.392Z,9.85
2022-11-18T18:21:44.316Z,9.83
2022-11-18T18:24:14.809Z,9.83
2022-11-18T18:26:42.657Z,9.82
2022-11-18T18:29:12.379Z,9.82
2022-11-18T18:31:40.347Z,9.80
2022-11-18T18:34:08.136Z,9.81
2022-11-18T18:36:36.182Z,9.80
2022-11-18T18:39:04.216Z,9.80
2022-11-18T18:41:32.516Z,9.80
2022-11-18T18:44:00.554Z,9.79
2022-11-18T18:46:30.176Z,9.79
2022-11-18T18:49:00.330Z,9.80
2022-11-18T18:51:30.488Z,9.78
2022-11-18T18:53:59.081Z,9.78
2022-11-18T18:56:27.808Z,9.76
2022-11-18T18:58:56.898Z,9.76
2022-11-18T19:01:25.568Z,9.76
2022-11-18T19:03:57.411Z,9.75
2022-11-18T19:06:52.081Z,9.74
2022-11-18T19:09:15.103Z,9.72
2022-11-18T19:12:01.264Z,9.71
2022-11-18T19:14:29.939Z,9.67
2022-11-18T19:16:58.356Z,9.66
2022-11-18T19:19:46.284Z,9.66
2022-11-18T19:22:15.863Z,9.61
2022-11-18T19:24:51.345Z,9.59
2022-11-18T19:27:20.020Z,9.57
2022-11-18T19:29:48.538Z,9.56
2022-11-18T19:32:16.611Z,9.56
2022-11-18T19:34:45.805Z,9.56
2022-11-18T19:37:13.685Z,9.53
2022-11-18T19:39:41.479Z,9.52
2022-11-18T19:42:11.057Z,9.52
2022-11-18T19:44:39.377Z,9.51
2022-11-18T19:47:07.407Z,9.50
2022-11-18T19:49:35.275Z,9.48
2022-11-18T19:52:04.522Z,9.49
2022-11-18T19:54:32.393Z,9.48
2022-11-18T19:57:01.142Z,9.46
2022-11-18T19:59:29.020Z,9.45
2022-11-18T20:01:56.848Z,9.44
2022-11-18T20:04:24.810Z,9.45
2022-11-18T20:06:52.796Z,9.44
2022-11-18T20:09:22.155Z,9.45
2022-11-18T20:11:50.164Z,9.43
2022-11-18T20:14:18.384Z,9.43
2022-11-18T20:16:46.332Z,9.42
2022-11-18T20:19:17.159Z,9.42
2022-11-18T20:21:47.857Z,9.41
2022-11-18T20:24:17.757Z,9.41
2022-11-18T20:26:47.515Z,9.41
2022-11-18T20:29:15.375Z,9.39
2022-11-18T20:31:43.325Z,9.39
2022-11-18T20:34:14.192Z,9.39
2022-11-18T20:36:43.009Z,9.38
2022-11-18T20:39:14.603Z,9.39
2022-11-18T20:41:42.681Z,9.35
2022-11-18T20:44:12.374Z,9.37
2022-11-18T20:46:40.550Z,9.35
2022-11-18T20:49:08.679Z,9.35
2022-11-18T20:51:37.034Z,9.36
2022-11-18T20:54:09.133Z,9.35
2022-11-18T20:56:37.137Z,9.35
2022-11-18T20:59:04.946Z,9.35
2022-11-18T21:01:34.505Z,9.36
2022-11-18T21:04:04.459Z,9.36
2022-11-18T21:06:33.367Z,9.36
2022-11-18T21:09:02.678Z,9.35
2022-11-18T21:11:31.189Z,9.31
2022-11-18T21:14:22.955Z,9.32
2022-11-18T21:16:55.160Z,9.28
2022-11-18T21:19:23.252Z,9.30
2022-11-18T21:21:52.438Z,9.30
2022-11-18T21:24:22.923Z,9.30
2022-11-18T21:26:54.432Z,9.29
2022-11-18T21:29:23.319Z,9.28
2022-11-18T21:31:53.105Z,9.29
2022-11-18T21:34:21.815Z,9.26
2022-11-18T21:36:54.208Z,9.26
2022-11-18T21:39:22.872Z,9.24
2022-11-18T21:41:55.151Z,9.25
2022-11-18T21:44:23.995Z,9.25
2022-11-18T21:46:53.225Z,9.25
2022-11-18T21:49:21.657Z,9.22
2022-11-18T21:51:50.029Z,9.23
2022-11-18T21:54:18.402Z,9.21
2022-11-18T21:56:46.337Z,9.20
2022-11-18T21:59:14.268Z,9.19
2022-11-18T22:01:42.075Z,9.18
2022-11-18T22:04:31.966Z,9.18
2022-11-18T22:07:01.462Z,9.15
2022-11-18T22:09:35.789Z,9.16
2022-11-18T22:12:04.430Z,9.15
2022-11-18T22:14:32.240Z,9.14
2022-11-18T22:17:00.056Z,9.13
2022-11-18T22:19:29.676Z,9.14
2022-11-18T22:21:57.683Z,9.10
2022-11-18T22:24:25.656Z,9.07
2022-11-18T22:26:53.533Z,9.05
2022-11-18T22:29:21.602Z,9.03
2022-11-18T22:31:49.455Z,9.02
2022-11-18T22:34:17.296Z,9.00
2022-11-18T22:36:46.497Z,8.98
2022-11-18T22:39:14.306Z,8.95
2022-11-18T22:41:59.717Z,8.94
2022-11-18T22:44:28.087Z,8.91
2022-11-18T22:46:55.834Z,8.89
2022-11-18T22:49:23.627Z,8.88
2022-11-18T22:51:52.719Z,8.88
2022-11-18T22:54:38.338Z,8.85
2022-11-18T22:57:07.334Z,8.82
2022-11-18T22:59:35.093Z,8.83
2022-11-18T23:02:02.964Z,8.82
2022-11-18T23:04:30.762Z,8.80
2022-11-18T23:06:59.947Z,8.82
2022-11-18T23:09:27.898Z,8.80
2022-11-18T23:12:13.491Z,8.80
2022-11-18T23:14:41.314Z,8.78
2022-11-18T23:17:10.483Z,8.78
2022-11-18T23:19:42.004Z,8.78
2022-11-18T23:22:11.657Z,8.77
2022-11-18T23:24:40.001Z,8.76
2022-11-18T23:27:07.843Z,8.76
2022-11-18T23:29:35.671Z,8.74
2022-11-18T23:32:03.588Z,8.73
2022-11-18T23:34:31.397Z,8.72
2022-11-18T23:36:59.238Z,8.70
2022-11-18T23:39:28.457Z,8.70
2022-11-18T23:41:56.370Z,8.67
2022-11-18T23:44:44.442Z,8.66
2022-11-18T23:47:12.474Z,8.62
2022-11-18T23:49:40.243Z,8.63
2022-11-18T23:52:08.014Z,8.61
2022-11-18T23:54:37.154Z,8.60
2022-11-18T23:57:05.579Z,8.57
2022-11-18T23:59:34.206Z,8.56
